Time;durP1;ratioP1;P1;durP2;ratioP2;P2;SDS_P1;SDS_P2;PMS_P1;PMS_P2;Temp;Humidity;BMP_temperature;BMP_pressure;BME280_temperature;BME280_humidity;BME280_pressure;Samples;Min_cycle;Max_cycle;Signal;HPM_P1;HPM_P2
2022/11/17 00:00:21;;;;;;;13.38;4.93;;;;;;;;;;5113029;28;20035;-70
2022/11/17 00:02:47;;;;;;;11.68;4.63;;;;;;;;;;5114833;28;20026;-71
2022/11/17 00:05:13;;;;;;;10.13;4.05;;;;;;;;;;5115126;28;20038;-70
2022/11/17 00:07:40;;;;;;;13.00;4.53;;;;;;;;;;5114831;28;20028;-70
2022/11/17 00:10:06;;;;;;;10.07;4.47;;;;;;;;;;5115058;28;20032;-70
2022/11/17 00:15:18;;;;;;;10.30;4.72;;;;;;;;;;5114706;28;20018;-70
2022/11/17 00:17:46;;;;;;;8.73;3.72;;;;;;;;;;5114864;28;20054;-70
2022/11/17 00:22:58;;;;;;;11.30;3.97;;;;;;;;;;5114642;28;20035;-70
2022/11/17 00:25:24;;;;;;;11.65;3.97;;;;;;;;;;5114232;28;20018;-70
2022/11/17 00:27:50;;;;;;;5.85;3.35;;;;;;;;;;5114540;28;20034;-70
2022/11/17 00:35:54;;;;;;;7.85;4.53;;;;;;;;;;5114296;28;20028;-69
2022/11/17 00:38:20;;;;;;;9.77;4.80;;;;;;;;;;5095898;28;20053;-69
2022/11/17 00:40:47;;;;;;;12.38;4.78;;;;;;;;;;5104257;28;20102;-69
2022/11/17 00:43:13;;;;;;;9.55;4.15;;;;;;;;;;5093817;28;20039;-69
2022/11/17 00:45:39;;;;;;;7.88;3.92;;;;;;;;;;5093449;28;20034;-69
2022/11/17 00:48:06;;;;;;;9.27;3.78;;;;;;;;;;5093817;28;20020;-69
2022/11/17 00:50:32;;;;;;;8.57;3.75;;;;;;;;;;5093768;28;20035;-69
2022/11/17 00:52:58;;;;;;;7.80;3.83;;;;;;;;;;5083101;28;20066;-69
2022/11/17 00:55:25;;;;;;;9.27;3.80;;;;;;;;;;5072979;28;20032;-69
2022/11/17 00:57:51;;;;;;;10.40;3.47;;;;;;;;;;5073366;28;20032;-69
2022/11/17 01:00:20;;;;;;;7.72;3.25;;;;;;;;;;5073040;28;20028;-69
2022/11/17 01:02:46;;;;;;;7.05;2.80;;;;;;;;;;5072972;28;20024;-69
2022/11/17 01:05:12;;;;;;;5.72;2.70;;;;;;;;;;5073285;28;20039;-69
2022/11/17 01:07:38;;;;;;;7.55;2.92;;;;;;;;;;5072924;28;20489;-69
2022/11/17 01:10:05;;;;;;;7.65;3.00;;;;;;;;;;5073037;28;20035;-69
2022/11/17 01:12:31;;;;;;;5.65;2.58;;;;;;;;;;5071953;28;20028;-69
2022/11/17 01:14:58;;;;;;;5.53;2.40;;;;;;;;;;5073030;28;20485;-70
2022/11/17 01:17:24;;;;;;;6.68;3.08;;;;;;;;;;5072761;28;20017;-69
2022/11/17 01:19:50;;;;;;;9.25;3.33;;;;;;;;;;5072655;28;20498;-69
2022/11/17 01:22:17;;;;;;;5.72;2.90;;;;;;;;;;5072558;28;20032;-69
2022/11/17 01:24:43;;;;;;;7.60;3.30;;;;;;;;;;5072300;28;20019;-70
2022/11/17 01:27:09;;;;;;;10.32;3.20;;;;;;;;;;5072869;28;20032;-69
2022/11/17 01:29:36;;;;;;;7.57;3.25;;;;;;;;;;5072630;28;20047;-70
2022/11/17 01:32:02;;;;;;;8.55;2.67;;;;;;;;;;5072529;28;20017;-70
2022/11/17 01:34:28;;;;;;;7.50;3.33;;;;;;;;;;5072371;28;20025;-69
2022/11/17 01:39:40;;;;;;;7.60;3.35;;;;;;;;;;5072235;28;20021;-70
2022/11/17 01:42:13;;;;;;;6.38;2.92;;;;;;;;;;5087595;28;20038;-70
2022/11/17 01:44:43;;;;;;;6.93;3.35;;;;;;;;;;5092603;28;20016;-69
2022/11/17 01:47:32;;;;;;;10.13;3.57;;;;;;;;;;5092760;28;20035;-69
2022/11/17 01:50:03;;;;;;;10.55;4.35;;;;;;;;;;5084385;28;20036;-70
2022/11/17 01:52:30;;;;;;;9.70;4.07;;;;;;;;;;5098247;28;20019;-70
2022/11/17 01:54:57;;;;;;;6.70;3.88;;;;;;;;;;5112631;28;20031;-70
2022/11/17 01:57:36;;;;;;;10.88;4.25;;;;;;;;;;5113104;28;20043;-70
2022/11/17 02:00:07;;;;;;;9.27;4.18;;;;;;;;;;5112823;28;20032;-69
2022/11/17 02:02:34;;;;;;;11.75;4.53;;;;;;;;;;5112494;28;20031;-70
2022/11/17 02:05:20;;;;;;;8.07;4.32;;;;;;;;;;5112441;28;20049;-70
2022/11/17 02:07:48;;;;;;;7.78;3.70;;;;;;;;;;5097967;28;20020;-70
2022/11/17 02:10:14;;;;;;;8.93;4.47;;;;;;;;;;5112791;28;20084;-70
2022/11/17 02:12:41;;;;;;;7.50;4.05;;;;;;;;;;5112637;28;20032;-69
2022/11/17 02:15:07;;;;;;;8.65;4.40;;;;;;;;;;5094171;28;20023;-69
2022/11/17 02:17:38;;;;;;;9.98;3.90;;;;;;;;;;5112594;28;20035;-69
2022/11/17 02:20:09;;;;;;;14.03;4.77;;;;;;;;;;5112352;28;20087;-69
2022/11/17 02:22:38;;;;;;;11.88;5.35;;;;;;;;;;5111765;28;20023;-70
2022/11/17 02:25:14;;;;;;;8.90;4.80;;;;;;;;;;5112445;28;20031;-69
2022/11/17 02:27:40;;;;;;;7.85;4.43;;;;;;;;;;5112114;28;20023;-69
2022/11/17 02:30:09;;;;;;;8.35;4.13;;;;;;;;;;5093902;28;20027;-69
2022/11/17 02:32:54;;;;;;;7.20;4.65;;;;;;;;;;5112085;28;20020;-69
2022/11/17 02:35:33;;;;;;;11.45;4.95;;;;;;;;;;5093518;28;20023;-69
2022/11/17 02:38:15;;;;;;;8.38;4.13;;;;;;;;;;5111854;28;20572;-70
2022/11/17 02:40:44;;;;;;;7.88;3.70;;;;;;;;;;5082098;28;20048;-70
2022/11/17 02:46:12;;;;;;;7.88;3.58;;;;;;;;;;5071348;28;20520;-69
2022/11/17 02:48:40;;;;;;;5.50;2.85;;;;;;;;;;5071653;28;20025;-70
2022/11/17 02:51:08;;;;;;;8.25;3.08;;;;;;;;;;5070509;28;20042;-70
2022/11/17 02:53:35;;;;;;;10.30;3.13;;;;;;;;;;5070983;28;20029;-69
2022/11/17 02:56:01;;;;;;;6.00;2.70;;;;;;;;;;5071147;28;20405;-70
2022/11/17 02:58:28;;;;;;;7.15;2.90;;;;;;;;;;5053093;28;20374;-69
2022/11/17 03:01:04;;;;;;;7.80;3.13;;;;;;;;;;5070778;28;20036;-70
2022/11/17 03:03:49;;;;;;;11.13;3.40;;;;;;;;;;5070976;28;20027;-70
2022/11/17 03:06:22;;;;;;;8.30;3.25;;;;;;;;;;5070785;28;20034;-69
2022/11/17 03:08:48;;;;;;;8.23;3.22;;;;;;;;;;5071260;28;20024;-69
2022/11/17 03:11:14;;;;;;;11.30;3.20;;;;;;;;;;5070945;28;20021;-70
2022/11/17 03:13:43;;;;;;;7.20;3.13;;;;;;;;;;5071037;28;20028;-70
2022/11/17 03:16:16;;;;;;;5.22;2.70;;;;;;;;;;5071266;28;20023;-70
2022/11/17 03:18:51;;;;;;;8.02;2.80;;;;;;;;;;5044902;28;20037;-70
2022/11/17 03:21:23;;;;;;;6.85;3.10;;;;;;;;;;5070711;28;20420;-70
2022/11/17 03:23:59;;;;;;;8.00;3.30;;;;;;;;;;5070933;28;20359;-70
2022/11/17 03:26:31;;;;;;;7.70;3.88;;;;;;;;;;5070859;28;20029;-70
2022/11/17 03:28:59;;;;;;;7.50;3.63;;;;;;;;;;5070677;28;20017;-69
2022/11/17 03:31:27;;;;;;;9.35;4.43;;;;;;;;;;5070798;28;20029;-70
2022/11/17 03:33:54;;;;;;;11.30;4.55;;;;;;;;;;5070650;28;20036;-70
2022/11/17 03:36:23;;;;;;;9.80;4.70;;;;;;;;;;5073970;28;20024;-69
2022/11/17 03:38:53;;;;;;;13.48;5.18;;;;;;;;;;5074713;28;20048;-69
2022/11/17 03:41:21;;;;;;;10.48;4.70;;;;;;;;;;5074530;28;20098;-69
2022/11/17 03:43:50;;;;;;;12.10;4.65;;;;;;;;;;5074909;28;20028;-70
2022/11/17 03:46:19;;;;;;;11.35;5.50;;;;;;;;;;5075020;28;20028;-69
2022/11/17 03:48:56;;;;;;;10.20;4.88;;;;;;;;;;5074547;28;20043;-69
2022/11/17 03:51:30;;;;;;;13.02;5.57;;;;;;;;;;5074507;28;20447;-70
2022/11/17 03:53:56;;;;;;;14.77;5.38;;;;;;;;;;5093265;28;20042;-69
2022/11/17 03:56:39;;;;;;;14.40;6.28;;;;;;;;;;5115076;28;20012;-70
2022/11/17 03:59:05;;;;;;;14.68;6.38;;;;;;;;;;5115067;28;20460;-70
2022/11/17 04:01:33;;;;;;;9.90;6.00;;;;;;;;;;5114813;28;20065;-70
2022/11/17 04:03:59;;;;;;;12.23;5.90;;;;;;;;;;5114457;28;20076;-70
2022/11/17 04:06:26;;;;;;;12.25;6.45;;;;;;;;;;5114938;28;20403;-70
2022/11/17 04:08:52;;;;;;;11.80;5.88;;;;;;;;;;5115009;28;20027;-70
2022/11/17 04:16:48;;;;;;;8.75;5.05;;;;;;;;;;5114449;28;20538;-71
2022/11/17 04:19:15;;;;;;;11.60;6.00;;;;;;;;;;5114639;28;20057;-70
2022/11/17 04:21:41;;;;;;;15.38;6.10;;;;;;;;;;5114409;28;20039;-70
2022/11/17 04:24:08;;;;;;;10.30;5.47;;;;;;;;;;5114481;28;20027;-70
2022/11/17 04:29:19;;;;;;;10.30;5.70;;;;;;;;;;5114475;28;20019;-70
2022/11/17 04:31:45;;;;;;;13.07;6.22;;;;;;;;;;5114271;28;20488;-70
2022/11/17 04:34:12;;;;;;;11.82;5.57;;;;;;;;;;5096178;28;20434;-70
2022/11/17 04:36:42;;;;;;;8.48;5.00;;;;;;;;;;5114130;28;20057;-70
2022/11/17 04:39:09;;;;;;;9.35;6.05;;;;;;;;;;5114242;28;20776;-70
2022/11/17 04:41:56;;;;;;;12.48;7.75;;;;;;;;;;5097898;28;20497;-70
2022/11/17 04:44:26;;;;;;;9.88;6.50;;;;;;;;;;5093754;28;20020;-70
2022/11/17 04:46:53;;;;;;;10.82;6.75;;;;;;;;;;5092288;28;20480;-70
2022/11/17 04:49:20;;;;;;;14.68;7.45;;;;;;;;;;5093721;28;20034;-70
2022/11/17 04:51:47;;;;;;;14.35;5.97;;;;;;;;;;5093716;28;20501;-70
2022/11/17 04:54:15;;;;;;;9.90;6.07;;;;;;;;;;5114060;28;20034;-70
2022/11/17 04:56:41;;;;;;;11.80;6.05;;;;;;;;;;5114176;28;20024;-70
2022/11/17 04:59:08;;;;;;;10.68;5.85;;;;;;;;;;5114171;28;20032;-70
2022/11/17 05:01:34;;;;;;;13.77;6.03;;;;;;;;;;5113568;28;20042;-70
2022/11/17 05:04:02;;;;;;;27.75;14.48;;;;;;;;;;5113822;28;20020;-70
2022/11/17 05:06:33;;;;;;;50.60;24.75;;;;;;;;;;5114008;28;20019;-70
2022/11/17 05:09:00;;;;;;;24.20;11.63;;;;;;;;;;5113751;28;20030;-70
2022/11/17 05:14:13;;;;;;;23.23;10.93;;;;;;;;;;5113679;28;20484;-70
2022/11/17 05:19:26;;;;;;;26.70;10.68;;;;;;;;;;5113473;28;20023;-70
2022/11/17 05:21:52;;;;;;;83.15;33.85;;;;;;;;;;5113159;28;20492;-69
2022/11/17 05:24:19;;;;;;;16.02;9.00;;;;;;;;;;5113258;28;20029;-69
2022/11/17 05:26:46;;;;;;;21.63;9.45;;;;;;;;;;5113403;28;20041;-70
2022/11/17 05:29:13;;;;;;;16.42;7.65;;;;;;;;;;5113319;28;20031;-70
2022/11/17 05:31:40;;;;;;;19.05;8.38;;;;;;;;;;5113069;28;20028;-69
2022/11/17 05:34:07;;;;;;;14.25;7.90;;;;;;;;;;5113419;28;20020;-70
2022/11/17 05:36:34;;;;;;;50.63;29.00;;;;;;;;;;5113226;28;20035;-70
2022/11/17 05:39:00;;;;;;;41.17;23.40;;;;;;;;;;5112813;28;20445;-70
2022/11/17 05:41:30;;;;;;;24.63;13.88;;;;;;;;;;5098172;28;20046;-70
2022/11/17 05:43:57;;;;;;;25.02;13.32;;;;;;;;;;5092208;28;20028;-70
2022/11/17 05:46:24;;;;;;;23.23;11.40;;;;;;;;;;5092686;28;20028;-70
2022/11/17 05:48:50;;;;;;;17.58;10.93;;;;;;;;;;5092669;28;20031;-70
2022/11/17 05:51:21;;;;;;;21.15;10.60;;;;;;;;;;5092340;28;20036;-70
2022/11/17 05:53:48;;;;;;;19.92;9.63;;;;;;;;;;5075516;28;20025;-70
2022/11/17 05:56:33;;;;;;;18.20;9.98;;;;;;;;;;5072161;28;20033;-70
2022/11/17 05:59:06;;;;;;;20.42;9.75;;;;;;;;;;5071529;28;20028;-70
2022/11/17 06:01:35;;;;;;;17.00;9.40;;;;;;;;;;5071970;28;20033;-70
2022/11/17 06:04:03;;;;;;;20.63;9.93;;;;;;;;;;5072395;28;20013;-70
2022/11/17 06:06:29;;;;;;;18.80;11.25;;;;;;;;;;5072095;28;20035;-70
2022/11/17 06:08:56;;;;;;;19.20;11.10;;;;;;;;;;5071987;28;20021;-70
2022/11/17 06:11:22;;;;;;;32.08;18.67;;;;;;;;;;5071863;28;20382;-70
2022/11/17 06:13:48;;;;;;;24.45;14.52;;;;;;;;;;5071806;28;20055;-70
2022/11/17 06:16:18;;;;;;;13.95;8.98;;;;;;;;;;5071710;28;20058;-70
2022/11/17 06:18:48;;;;;;;14.93;8.88;;;;;;;;;;5071764;28;20023;-69
2022/11/17 06:21:15;;;;;;;20.25;9.43;;;;;;;;;;5071387;28;20044;-70
2022/11/17 06:23:42;;;;;;;15.98;9.65;;;;;;;;;;5071784;28;20021;-70
2022/11/17 06:26:09;;;;;;;15.13;9.55;;;;;;;;;;5053944;28;20037;-70
2022/11/17 06:28:36;;;;;;;16.33;9.93;;;;;;;;;;5071413;28;20016;-70
2022/11/17 06:31:04;;;;;;;14.13;9.38;;;;;;;;;;5071523;28;20031;-70
2022/11/17 06:33:30;;;;;;;20.85;10.93;;;;;;;;;;5071479;28;20023;-70
2022/11/17 06:35:58;;;;;;;16.60;10.82;;;;;;;;;;5071405;28;20362;-70
2022/11/17 06:38:25;;;;;;;19.75;11.77;;;;;;;;;;5067767;28;20063;-70
2022/11/17 06:40:51;;;;;;;23.77;12.80;;;;;;;;;;5071059;28;20041;-70
2022/11/17 06:43:18;;;;;;;17.73;10.70;;;;;;;;;;5070917;28;20406;-70
2022/11/17 06:45:45;;;;;;;19.40;8.93;;;;;;;;;;5071341;28;20027;-70
2022/11/17 06:48:13;;;;;;;19.80;9.10;;;;;;;;;;5071544;28;20024;-70
2022/11/17 06:50:39;;;;;;;19.98;8.30;;;;;;;;;;5053430;28;20038;-70
2022/11/17 06:53:07;;;;;;;20.80;8.00;;;;;;;;;;5093707;28;20908;-70
2022/11/17 06:55:34;;;;;;;18.25;8.68;;;;;;;;;;5111874;28;20503;-70
2022/11/17 06:58:01;;;;;;;22.05;10.13;;;;;;;;;;5093308;28;20045;-70
2022/11/17 07:00:29;;;;;;;21.20;10.23;;;;;;;;;;5111498;28;20027;-70
2022/11/17 07:03:02;;;;;;;14.45;8.02;;;;;;;;;;5111587;28;20020;-70
2022/11/17 07:05:30;;;;;;;14.02;7.03;;;;;;;;;;5111824;28;20016;-70
2022/11/17 07:07:57;;;;;;;24.50;12.52;;;;;;;;;;5093344;28;20027;-70
2022/11/17 07:10:24;;;;;;;29.63;15.82;;;;;;;;;;5110925;28;20369;-70
2022/11/17 07:12:50;;;;;;;34.42;18.63;;;;;;;;;;5111207;28;20028;-70
2022/11/17 07:15:17;;;;;;;28.63;14.55;;;;;;;;;;5108225;28;20023;-70
2022/11/17 07:17:43;;;;;;;28.70;15.38;;;;;;;;;;5083588;28;20034;-69
2022/11/17 07:20:10;;;;;;;89.47;38.78;;;;;;;;;;5093284;28;20026;-68
2022/11/17 07:22:37;;;;;;;58.47;27.60;;;;;;;;;;5110563;28;20044;-70
2022/11/17 07:25:03;;;;;;;22.98;11.57;;;;;;;;;;5098187;28;20031;-71
2022/11/17 07:27:30;;;;;;;27.30;10.95;;;;;;;;;;5089732;28;20098;-69
2022/11/17 07:29:57;;;;;;;22.98;11.13;;;;;;;;;;5090691;28;20025;-68
2022/11/17 07:32:23;;;;;;;17.95;9.10;;;;;;;;;;5090054;28;20024;-69
2022/11/17 07:34:49;;;;;;;16.52;7.72;;;;;;;;;;5085545;28;20031;-70
2022/11/17 07:37:16;;;;;;;18.00;6.95;;;;;;;;;;5092349;28;20066;-70
2022/11/17 07:39:42;;;;;;;21.65;9.43;;;;;;;;;;5099744;28;20046;-70
2022/11/17 07:42:09;;;;;;;38.33;18.15;;;;;;;;;;5088374;28;20039;-70
2022/11/17 07:44:35;;;;;;;28.67;13.23;;;;;;;;;;5111008;28;20023;-70
2022/11/17 07:47:01;;;;;;;25.55;11.52;;;;;;;;;;5111375;28;20022;-69
2022/11/17 07:49:28;;;;;;;19.88;10.25;;;;;;;;;;5093153;28;20038;-69
2022/11/17 07:51:54;;;;;;;25.42;11.35;;;;;;;;;;5109343;28;20024;-70
2022/11/17 07:54:20;;;;;;;24.13;11.15;;;;;;;;;;5108049;28;20405;-70
2022/11/17 07:56:47;;;;;;;16.83;7.88;;;;;;;;;;5111248;28;20016;-70
2022/11/17 07:59:13;;;;;;;15.38;7.10;;;;;;;;;;5110419;28;20085;-71
2022/11/17 08:01:40;;;;;;;12.95;7.47;;;;;;;;;;5110551;28;20166;-71
2022/11/17 08:04:07;;;;;;;14.07;7.45;;;;;;;;;;5110908;28;20027;-70
2022/11/17 08:06:33;;;;;;;15.40;7.75;;;;;;;;;;5111063;28;20067;-70
2022/11/17 08:08:59;;;;;;;13.30;6.50;;;;;;;;;;5110782;28;20019;-70
2022/11/17 08:11:26;;;;;;;13.63;6.45;;;;;;;;;;5103125;28;20016;-70
2022/11/17 08:13:52;;;;;;;8.10;3.90;;;;;;;;;;5079404;28;20025;-70
2022/11/17 08:16:19;;;;;;;9.07;4.20;;;;;;;;;;5084477;28;20030;-69
2022/11/17 08:18:45;;;;;;;13.43;4.30;;;;;;;;;;5077856;28;20043;-70
2022/11/17 08:21:15;;;;;;;13.02;4.15;;;;;;;;;;5083439;28;20024;-69
2022/11/17 08:23:41;;;;;;;12.68;4.38;;;;;;;;;;5082100;28;20431;-70
2022/11/17 08:26:08;;;;;;;9.45;3.58;;;;;;;;;;5093172;28;20485;-70
2022/11/17 08:28:35;;;;;;;6.50;2.80;;;;;;;;;;5095831;28;20028;-70
2022/11/17 08:31:02;;;;;;;14.80;3.58;;;;;;;;;;5114115;28;20026;-70
2022/11/17 08:33:29;;;;;;;14.13;3.78;;;;;;;;;;5114018;28;20031;-70
2022/11/17 08:36:02;;;;;;;14.73;4.78;;;;;;;;;;5114348;28;20019;-69
2022/11/17 08:38:28;;;;;;;20.27;7.65;;;;;;;;;;5113400;28;20039;-69
2022/11/17 08:40:58;;;;;;;14.20;6.07;;;;;;;;;;5106678;28;20046;-70
2022/11/17 08:43:24;;;;;;;11.50;4.30;;;;;;;;;;5113991;28;20056;-70
2022/11/17 08:45:51;;;;;;;9.45;3.90;;;;;;;;;;5113931;28;20050;-69
2022/11/17 08:48:17;;;;;;;40.08;16.35;;;;;;;;;;5113661;28;20022;-70
2022/11/17 08:50:43;;;;;;;13.90;5.70;;;;;;;;;;5113662;28;20393;-70
2022/11/17 08:53:13;;;;;;;222.57;74.82;;;;;;;;;;5101467;28;20038;-69
2022/11/17 08:55:39;;;;;;;34.50;13.55;;;;;;;;;;5074996;28;20016;-70
2022/11/17 08:58:06;;;;;;;36.20;15.55;;;;;;;;;;5093489;28;20518;-70
2022/11/17 09:00:32;;;;;;;20.73;7.95;;;;;;;;;;5093072;28;20031;-70
2022/11/17 09:02:59;;;;;;;10.55;5.93;;;;;;;;;;5073711;28;20031;-69
2022/11/17 09:05:25;;;;;;;12.45;6.20;;;;;;;;;;5090345;28;20485;-70
2022/11/17 09:07:52;;;;;;;10.93;5.40;;;;;;;;;;5106041;28;20052;-69
2022/11/17 09:10:18;;;;;;;11.13;5.90;;;;;;;;;;5101993;28;20023;-70
2022/11/17 09:12:44;;;;;;;13.00;5.63;;;;;;;;;;5094244;28;20025;-70
2022/11/17 09:15:11;;;;;;;14.00;5.72;;;;;;;;;;5091530;28;20024;-70
2022/11/17 09:17:39;;;;;;;13.85;5.72;;;;;;;;;;5088929;28;20035;-69
2022/11/17 09:20:05;;;;;;;10.38;5.93;;;;;;;;;;5079572;28;20086;-70
2022/11/17 09:22:32;;;;;;;25.10;12.75;;;;;;;;;;5092138;28;20036;-70
2022/11/17 09:24:58;;;;;;;19.52;8.88;;;;;;;;;;5091953;28;20024;-69
2022/11/17 09:27:24;;;;;;;17.02;8.52;;;;;;;;;;5090155;28;20036;-70
2022/11/17 09:29:50;;;;;;;14.75;6.70;;;;;;;;;;5092781;28;20030;-70
2022/11/17 09:32:18;;;;;;;12.32;5.78;;;;;;;;;;5092023;28;20043;-70
2022/11/17 09:34:44;;;;;;;17.95;5.57;;;;;;;;;;5092457;28;20028;-70
2022/11/17 09:37:11;;;;;;;14.73;4.95;;;;;;;;;;5091357;28;20028;-70
2022/11/17 09:39:37;;;;;;;12.15;4.90;;;;;;;;;;5112234;28;20046;-70
2022/11/17 09:42:04;;;;;;;15.93;6.72;;;;;;;;;;5092479;28;20500;-70
2022/11/17 09:44:35;;;;;;;19.30;6.68;;;;;;;;;;5092087;28;20020;-69
2022/11/17 09:47:19;;;;;;;14.32;3.67;;;;;;;;;;5092585;28;20020;-69
2022/11/17 09:49:45;;;;;;;15.45;3.72;;;;;;;;;;5092074;28;20025;-70
2022/11/17 09:52:17;;;;;;;11.70;3.70;;;;;;;;;;5091554;28;20049;-70
2022/11/17 09:54:57;;;;;;;12.00;4.22;;;;;;;;;;5092135;28;20053;-69
2022/11/17 09:57:43;;;;;;;13.90;4.25;;;;;;;;;;5091618;28;20024;-70
2022/11/17 10:00:13;;;;;;;13.75;4.53;;;;;;;;;;5083229;28;20485;-70
2022/11/17 10:02:40;;;;;;;11.25;3.85;;;;;;;;;;5075427;28;20366;-69
2022/11/17 10:05:12;;;;;;;16.02;3.72;;;;;;;;;;5073924;28;20493;-70
2022/11/17 10:07:40;;;;;;;10.43;3.40;;;;;;;;;;5091704;28;20024;-69
2022/11/17 10:10:12;;;;;;;10.88;2.90;;;;;;;;;;5091911;28;20036;-70
2022/11/17 10:12:44;;;;;;;16.58;3.72;;;;;;;;;;5091265;28;20032;-70
2022/11/17 10:15:28;;;;;;;16.95;3.55;;;;;;;;;;5091514;28;20024;-70
2022/11/17 10:17:54;;;;;;;41.38;16.38;;;;;;;;;;5084028;28;20025;-70
2022/11/17 10:20:21;;;;;;;18.63;5.75;;;;;;;;;;5070843;28;20474;-70
2022/11/17 10:22:47;;;;;;;11.25;3.53;;;;;;;;;;5071329;28;20046;-69
2022/11/17 10:25:21;;;;;;;16.02;4.18;;;;;;;;;;5085918;28;20020;-69
2022/11/17 10:27:53;;;;;;;20.00;5.00;;;;;;;;;;5091350;28;20020;-69
2022/11/17 10:30:25;;;;;;;14.75;4.00;;;;;;;;;;5090391;28;20035;-69
2022/11/17 10:32:51;;;;;;;;;;;;;;;;;;5092159;28;20031;-70
2022/11/17 10:35:19;;;;;;;16.50;3.97;;;;;;;;;;5073023;28;19914;-70
2022/11/17 10:38:02;;;;;;;15.93;4.45;;;;;;;;;;5091146;28;20058;-69
2022/11/17 10:40:30;;;;;;;23.67;5.25;;;;;;;;;;5085744;28;20499;-69
2022/11/17 10:42:57;;;;;;;20.38;6.82;;;;;;;;;;5091393;28;20039;-70
2022/11/17 10:45:24;;;;;;;24.67;8.07;;;;;;;;;;5090411;28;20016;-70
2022/11/17 10:47:50;;;;;;;17.17;6.85;;;;;;;;;;5072903;28;20044;-70
2022/11/17 10:50:27;;;;;;;21.55;5.75;;;;;;;;;;5051961;28;20017;-70
2022/11/17 10:52:54;;;;;;;24.80;8.35;;;;;;;;;;5084326;28;20032;-70
2022/11/17 10:55:30;;;;;;;27.77;9.73;;;;;;;;;;5106491;28;20019;-69
2022/11/17 10:57:56;;;;;;;25.75;8.60;;;;;;;;;;5111070;28;20024;-70
2022/11/17 11:00:23;;;;;;;20.88;7.47;;;;;;;;;;5111127;28;20020;-70
2022/11/17 11:02:49;;;;;;;25.52;7.18;;;;;;;;;;5111176;28;20012;-70
2022/11/17 11:05:17;;;;;;;27.50;8.10;;;;;;;;;;5075470;28;20036;-70
2022/11/17 11:07:44;;;;;;;20.27;7.63;;;;;;;;;;5070916;28;20017;-70
2022/11/17 11:10:16;;;;;;;24.10;6.40;;;;;;;;;;5070864;28;20028;-70
2022/11/17 11:13:01;;;;;;;20.17;5.43;;;;;;;;;;5070705;28;20043;-70
2022/11/17 11:15:31;;;;;;;18.58;5.25;;;;;;;;;;5052826;28;20042;-70
2022/11/17 11:17:57;;;;;;;46.67;21.70;;;;;;;;;;5070435;28;20511;-70
2022/11/17 11:20:29;;;;;;;52.47;27.20;;;;;;;;;;5070313;28;20039;-70
2022/11/17 11:23:06;;;;;;;20.27;7.82;;;;;;;;;;5070510;28;20040;-69
2022/11/17 11:26:05;;;;;;;19.05;7.88;;;;;;;;;;5070863;28;20031;-70
2022/11/17 11:28:34;;;;;;;18.08;7.13;;;;;;;;;;4988819;28;20050;-69
2022/11/17 11:31:09;;;;;;;18.20;5.35;;;;;;;;;;5008656;28;20046;-70
2022/11/17 11:33:41;;;;;;;11.25;3.55;;;;;;;;;;5008107;28;20025;-70
2022/11/17 11:36:19;;;;;;;37.03;15.77;;;;;;;;;;5008645;28;20025;-70
2022/11/17 11:38:49;;;;;;;13.05;4.72;;;;;;;;;;5008592;28;20048;-69
2022/11/17 11:41:20;;;;;;;11.43;4.45;;;;;;;;;;5021269;28;20048;-70
2022/11/17 11:44:02;;;;;;;12.02;4.25;;;;;;;;;;5012177;28;20045;-70
2022/11/17 11:46:43;;;;;;;14.70;4.88;;;;;;;;;;5027933;28;20034;-69
2022/11/17 11:49:16;;;;;;;13.02;4.45;;;;;;;;;;5028279;28;20556;-69
2022/11/17 11:51:42;;;;;;;14.85;4.25;;;;;;;;;;5011696;28;20034;-70
2022/11/17 11:54:12;;;;;;;11.55;4.53;;;;;;;;;;5047904;28;20075;-69
2022/11/17 11:56:40;;;;;;;9.60;4.05;;;;;;;;;;5050225;28;20029;-70
2022/11/17 11:59:12;;;;;;;16.38;4.63;;;;;;;;;;5052185;28;20033;-70
2022/11/17 12:01:54;;;;;;;12.57;4.57;;;;;;;;;;5051343;28;20073;-70
2022/11/17 12:04:20;;;;;;;12.95;4.38;;;;;;;;;;5085972;28;20035;-69
2022/11/17 12:06:52;;;;;;;11.55;4.85;;;;;;;;;;5115045;28;20066;-70
2022/11/17 12:09:24;;;;;;;11.63;4.20;;;;;;;;;;5115024;28;20023;-70
2022/11/17 12:12:01;;;;;;;15.05;4.40;;;;;;;;;;5114816;28;20073;-70
2022/11/17 12:14:29;;;;;;;17.98;4.47;;;;;;;;;;5114553;28;20023;-70
2022/11/17 12:17:06;;;;;;;15.48;3.75;;;;;;;;;;5095743;28;20041;-70
2022/11/17 12:19:52;;;;;;;11.95;3.58;;;;;;;;;;5114497;28;20426;-71
2022/11/17 12:22:31;;;;;;;12.23;3.97;;;;;;;;;;5114117;28;20511;-68
2022/11/17 12:25:00;;;;;;;17.30;4.20;;;;;;;;;;5114578;28;20030;-70
2022/11/17 12:27:35;;;;;;;18.77;4.15;;;;;;;;;;5114224;28;20032;-70
2022/11/17 12:30:02;;;;;;;18.02;5.18;;;;;;;;;;5113897;28;20370;-70
2022/11/17 12:32:52;;;;;;;11.27;4.00;;;;;;;;;;5095949;28;20035;-70
2022/11/17 12:35:24;;;;;;;16.92;4.20;;;;;;;;;;5103592;28;20028;-70
2022/11/17 12:38:09;;;;;;;11.60;4.30;;;;;;;;;;5114158;28;20051;-70
2022/11/17 12:40:38;;;;;;;15.50;4.47;;;;;;;;;;5098322;28;20031;-70
2022/11/17 12:43:16;;;;;;;13.95;4.47;;;;;;;;;;5087801;28;20036;-71
2022/11/17 12:45:55;;;;;;;17.23;5.20;;;;;;;;;;5090249;28;20046;-71
2022/11/17 12:48:22;;;;;;;18.15;4.32;;;;;;;;;;5093195;28;20020;-70
2022/11/17 12:50:57;;;;;;;14.80;4.68;;;;;;;;;;5092995;28;20028;-70
2022/11/17 12:53:33;;;;;;;18.50;4.30;;;;;;;;;;5093140;28;20495;-70
2022/11/17 12:56:20;;;;;;;17.80;4.65;;;;;;;;;;5093348;28;20034;-70
2022/11/17 12:59:05;;;;;;;10.77;3.80;;;;;;;;;;5092012;28;20024;-70
2022/11/17 13:01:50;;;;;;;17.38;4.30;;;;;;;;;;5077945;28;20040;-69
2022/11/17 13:04:23;;;;;;;17.52;4.40;;;;;;;;;;5076079;28;20028;-69
2022/11/17 13:07:07;;;;;;;20.10;4.80;;;;;;;;;;5112621;28;20391;-70
2022/11/17 13:09:34;;;;;;;21.20;4.97;;;;;;;;;;5100182;28;20026;-70
2022/11/17 13:12:03;;;;;;;18.42;4.68;;;;;;;;;;5089397;28;20396;-70
2022/11/17 13:14:30;;;;;;;20.05;4.90;;;;;;;;;;5088886;28;20491;-70
2022/11/17 13:16:58;;;;;;;19.17;4.63;;;;;;;;;;5113233;28;20019;-70
2022/11/17 13:19:33;;;;;;;16.25;4.57;;;;;;;;;;5098079;28;20024;-70
2022/11/17 13:22:14;;;;;;;14.60;4.43;;;;;;;;;;5092819;28;20047;-69
2022/11/17 13:24:41;;;;;;;15.95;4.70;;;;;;;;;;5092805;28;20085;-70
2022/11/17 13:27:27;;;;;;;17.58;4.80;;;;;;;;;;5092895;28;20030;-70
2022/11/17 13:30:12;;;;;;;14.35;4.93;;;;;;;;;;5093364;28;20043;-70
2022/11/17 13:32:39;;;;;;;17.52;4.55;;;;;;;;;;5112808;28;20034;-70
2022/11/17 13:35:18;;;;;;;14.55;4.82;;;;;;;;;;5112927;28;20015;-70
2022/11/17 13:37:44;;;;;;;17.08;4.50;;;;;;;;;;5112598;28;20047;-70
2022/11/17 13:40:21;;;;;;;18.75;4.65;;;;;;;;;;5108904;28;20024;-70
2022/11/17 13:42:48;;;;;;;18.23;4.63;;;;;;;;;;5091838;28;20058;-69
2022/11/17 13:45:15;;;;;;;21.65;5.38;;;;;;;;;;5092344;28;20027;-70
2022/11/17 13:47:44;;;;;;;19.85;4.82;;;;;;;;;;5092232;28;20484;-70
2022/11/17 13:50:39;;;;;;;26.15;5.00;;;;;;;;;;5092359;28;20024;-70
2022/11/17 13:53:18;;;;;;;17.92;4.55;;;;;;;;;;5070483;28;20305;-70
2022/11/17 13:55:45;;;;;;;18.50;4.35;;;;;;;;;;5091858;28;20026;-70
2022/11/17 13:58:32;;;;;;;19.17;4.75;;;;;;;;;;5091336;28;20020;-69
2022/11/17 14:00:58;;;;;;;16.65;4.10;;;;;;;;;;5074473;28;20032;-70
2022/11/17 14:03:34;;;;;;;20.85;4.45;;;;;;;;;;5091660;28;20381;-69
2022/11/17 14:06:01;;;;;;;24.92;5.22;;;;;;;;;;5091783;28;20503;-70
2022/11/17 14:08:30;;;;;;;25.20;4.65;;;;;;;;;;5109669;28;20019;-70
2022/11/17 14:11:06;;;;;;;17.80;4.53;;;;;;;;;;5105365;28;20026;-69
2022/11/17 14:13:38;;;;;;;24.55;5.15;;;;;;;;;;5082244;28;20024;-70
2022/11/17 14:16:04;;;;;;;18.15;4.05;;;;;;;;;;5085887;28;20026;-70
2022/11/17 14:18:36;;;;;;;22.35;4.60;;;;;;;;;;5089166;28;20028;-70
2022/11/17 14:21:06;;;;;;;22.52;4.20;;;;;;;;;;5071368;28;20024;-70
2022/11/17 14:23:33;;;;;;;26.93;5.50;;;;;;;;;;5071378;28;20029;-69
2022/11/17 14:25:59;;;;;;;21.85;4.28;;;;;;;;;;5070726;28;20684;-70
2022/11/17 14:28:26;;;;;;;26.17;4.60;;;;;;;;;;5071220;28;20040;-70
2022/11/17 14:30:53;;;;;;;22.10;4.97;;;;;;;;;;5073373;28;20028;-70
2022/11/17 14:33:20;;;;;;;29.67;4.97;;;;;;;;;;5091401;28;20407;-69
2022/11/17 14:35:53;;;;;;;21.98;4.70;;;;;;;;;;5091199;28;20072;-70
2022/11/17 14:38:20;;;;;;;21.70;4.82;;;;;;;;;;5091189;28;20058;-69
2022/11/17 14:40:48;;;;;;;24.63;4.90;;;;;;;;;;5099455;28;20031;-69
2022/11/17 14:43:14;;;;;;;21.05;4.35;;;;;;;;;;5111317;28;20407;-69
2022/11/17 14:45:40;;;;;;;22.30;5.05;;;;;;;;;;5111523;28;20034;-71
2022/11/17 14:48:07;;;;;;;20.17;4.60;;;;;;;;;;5111591;28;20422;-70
2022/11/17 14:50:33;;;;;;;23.10;4.70;;;;;;;;;;5111655;28;20027;-69
2022/11/17 14:53:00;;;;;;;23.73;4.63;;;;;;;;;;5100994;28;20028;-70
2022/11/17 14:55:26;;;;;;;22.60;5.20;;;;;;;;;;5090590;28;20024;-69
2022/11/17 14:57:53;;;;;;;24.05;5.05;;;;;;;;;;5090995;28;20024;-69
2022/11/17 15:00:19;;;;;;;25.50;5.03;;;;;;;;;;5091025;28;20378;-70
2022/11/17 15:02:46;;;;;;;17.65;4.97;;;;;;;;;;5090902;28;20042;-70
2022/11/17 15:05:13;;;;;;;79.35;21.10;;;;;;;;;;5091267;28;20024;-69
2022/11/17 15:07:39;;;;;;;28.15;6.35;;;;;;;;;;5086462;28;20017;-69
2022/11/17 15:10:06;;;;;;;23.73;6.07;;;;;;;;;;5070368;28;20043;-69
2022/11/17 15:12:33;;;;;;;36.05;7.32;;;;;;;;;;5070584;28;20039;-69
2022/11/17 15:14:59;;;;;;;30.73;7.00;;;;;;;;;;5070941;28;20025;-69